Time;durP1;ratioP1;P1;durP2;ratioP2;P2;SDS_P1;SDS_P2;PMS_P1;PMS_P2;Temp;Humidity;BMP_temperature;BMP_pressure;BME280_temperature;BME280_humidity;BME280_pressure;Samples;Min_cycle;Max_cycle;Signal;HPM_P1;HPM_P2
2022/05/10 00:01:35;;;;;;;;;21.00;19.33;;;;;21.16;44.50;101432.47;5074868;28;45366;-59
2022/05/10 00:04:03;;;;;;;;;23.67;23.67;;;;;21.11;44.69;101422.06;5024068;28;45437;-59
2022/05/10 00:06:35;;;;;;;;;19.67;19.00;;;;;21.10;45.03;101417.66;5058253;28;45571;-58
2022/05/10 00:09:00;;;;;;;;;18.67;18.67;;;;;21.09;44.77;101426.72;5061156;28;46216;-60
2022/05/10 00:11:26;;;;;;;;;23.00;22.67;;;;;21.09;44.79;101426.72;5094055;27;45200;-60
2022/05/10 00:13:51;;;;;;;;;23.00;21.67;;;;;21.05;45.31;101413.63;5066137;27;45363;-60
2022/05/10 00:16:18;;;;;;;;;23.67;23.67;;;;;21.05;45.04;101417.19;5079178;27;45488;-60
2022/05/10 00:18:44;;;;;;;;;23.67;21.00;;;;;21.02;45.27;101413.88;5077047;27;46833;-60
2022/05/10 00:21:12;;;;;;;;;24.33;22.67;;;;;21.01;45.08;101415.72;5078414;27;45279;-61
2022/05/10 00:23:37;;;;;;;;;24.00;23.67;;;;;21.04;45.39;101415.47;5058543;27;45426;-60
2022/05/10 00:26:03;;;;;;;;;23.33;22.67;;;;;21.02;45.38;101412.03;5070626;28;45581;-61
2022/05/10 00:28:28;;;;;;;;;25.00;19.00;;;;;21.00;45.65;101411.31;5057966;28;45338;-60
2022/05/10 00:30:54;;;;;;;;;24.67;21.67;;;;;20.93;45.28;101404.72;5069704;28;45457;-60
2022/05/10 00:33:27;;;;;;;;;24.67;21.67;;;;;20.95;45.51;101407.28;5077608;27;45453;-60
2022/05/10 00:35:54;;;;;;;;;21.33;19.67;;;;;20.96;45.81;101409.84;5076903;27;45385;-59
2022/05/10 00:38:21;;;;;;;;;21.67;20.67;;;;;20.93;45.96;101412.81;5078431;27;45290;-59
2022/05/10 00:40:46;;;;;;;;;25.00;23.00;;;;;20.85;45.84;101393.72;5075723;27;45404;-60
2022/05/10 00:43:29;;;;;;;;;27.00;26.00;;;;;20.86;46.22;101407.13;5077995;27;45267;-60
2022/05/10 00:46:01;;;;;;;;;25.67;24.00;;;;;20.83;46.00;101409.19;5074501;28;45422;-60
2022/05/10 00:48:44;;;;;;;;;27.67;25.00;;;;;20.79;46.36;101408.63;5077979;27;45489;-60
2022/05/10 00:51:27;;;;;;;;;25.67;23.33;;;;;20.76;46.40;101398.06;5048636;28;45281;-59
2022/05/10 00:54:02;;;;;;;;;24.67;23.00;;;;;20.73;46.50;101392.94;5054830;28;45374;-59
2022/05/10 00:56:50;;;;;;;;;23.00;23.00;;;;;20.71;46.11;101392.22;5077946;27;45377;-59
2022/05/10 00:59:28;;;;;;;;;26.33;24.67;;;;;20.69;46.94;101391.47;5075617;27;45528;-59
2022/05/10 01:02:11;;;;;;;;;23.00;23.00;;;;;20.66;47.00;101382.78;5077459;27;45335;-59
2022/05/10 01:04:47;;;;;;;;;29.00;26.33;;;;;20.60;47.19;101393.13;5074557;27;45619;-60
2022/05/10 01:07:26;;;;;;;;;27.67;26.67;;;;;20.59;47.28;101390.56;5077962;27;45334;-59
2022/05/10 01:10:01;;;;;;;;;30.33;26.33;;;;;20.55;47.39;101389.94;5063211;27;45449;-61
2022/05/10 01:12:40;;;;;;;;;28.33;28.00;;;;;20.52;47.64;101389.38;5036942;28;45428;-60
2022/05/10 01:15:10;;;;;;;;;29.33;27.00;;;;;20.49;47.71;101390.50;5026397;28;45446;-61
2022/05/10 01:17:36;;;;;;;;;25.67;24.67;;;;;20.48;47.78;101388.78;5044027;28;45470;-59
2022/05/10 01:20:02;;;;;;;;;25.33;25.33;;;;;20.45;48.22;101383.63;5056738;28;46309;-59
2022/05/10 01:22:47;;;;;;;;;23.67;22.00;;;;;20.43;47.99;101376.63;5058184;28;45436;-58
2022/05/10 01:25:27;;;;;;;;;24.33;23.67;;;;;20.41;48.44;101378.56;5055716;27;45472;-59
2022/05/10 01:28:11;;;;;;;;;23.33;22.00;;;;;20.38;48.30;101386.94;5057081;28;45297;-59
2022/05/10 01:30:37;;;;;;;;;26.33;24.33;;;;;20.35;48.51;101366.44;5070829;28;45865;-59
2022/05/10 01:36:04;;;;;;;;;28.00;24.00;;;;;20.28;48.56;101367.94;5075433;28;45483;-59
2022/05/10 01:38:51;;;;;;;;;24.33;24.33;;;;;20.26;48.66;101370.78;5077305;27;45300;-60
2022/05/10 01:41:41;;;;;;;;;26.00;23.33;;;;;20.23;48.92;101367.50;5091171;27;45338;-60
2022/05/10 01:44:25;;;;;;;;;22.00;22.00;;;;;20.21;48.90;101358.66;5074703;27;45646;-60
2022/05/10 01:47:07;;;;;;;;;22.67;22.67;;;;;20.19;49.05;101355.25;5075213;27;45403;-60
2022/05/10 01:49:49;;;;;;;;;29.67;28.00;;;;;20.13;49.13;101353.03;5077236;27;45219;-61
2022/05/10 01:52:22;;;;;;;;;27.33;27.33;;;;;20.12;49.40;101354.03;5057941;28;46453;-59
2022/05/10 01:55:21;;;;;;;;;25.33;25.00;;;;;20.12;49.18;101354.03;5073495;28;45501;-60
2022/05/10 01:57:46;;;;;;;;;21.00;21.00;;;;;20.07;49.44;101345.47;5076827;27;45303;-60
2022/05/10 02:00:16;;;;;;;;;25.00;21.33;;;;;20.09;49.48;101349.75;5073997;27;45240;-59
2022/05/10 02:02:48;;;;;;;;;26.67;23.33;;;;;20.08;49.51;101344.47;5043164;28;45406;-59
2022/05/10 02:05:20;;;;;;;;;23.67;21.67;;;;;20.06;49.47;101349.16;5046310;28;45342;-59
2022/05/10 02:07:49;;;;;;;;;23.00;23.00;;;;;20.00;49.84;101345.97;5055786;28;45525;-59
2022/05/10 02:10:24;;;;;;;;;29.67;26.33;;;;;19.98;49.59;101341.69;5071252;28;45752;-60
2022/05/10 02:12:59;;;;;;;;;19.00;18.33;;;;;20.01;49.68;101347.69;5062627;28;46575;-60
2022/05/10 02:15:35;;;;;;;;;22.00;22.00;;;;;20.00;49.44;101339.72;5062899;27;45350;-60
2022/05/10 02:18:30;;;;;;;;;22.33;22.33;;;;;19.97;49.76;101330.03;5056100;28;45347;-61
2022/05/10 02:21:09;;;;;;;;;23.33;20.67;;;;;19.97;50.06;101332.72;5071738;27;45516;-61
2022/05/10 02:23:45;;;;;;;;;22.33;22.00;;;;;19.95;49.66;101337.41;5075224;27;45436;-60
2022/05/10 02:26:16;;;;;;;;;24.00;24.00;;;;;19.95;49.92;101336.56;5074794;27;45559;-60
2022/05/10 02:28:41;;;;;;;;;27.33;23.67;;;;;19.96;50.31;101332.88;5075534;27;45248;-60
2022/05/10 02:31:14;;;;;;;;;24.33;23.00;;;;;19.92;50.24;101334.97;5076456;28;45623;-59
2022/05/10 02:33:41;;;;;;;;;21.33;20.33;;;;;19.87;49.47;101323.69;5076342;27;46464;-59
2022/05/10 02:36:07;;;;;;;;;21.00;21.00;;;;;19.93;49.98;101333.97;5055575;27;45541;-59
2022/05/10 02:38:40;;;;;;;;;22.00;20.33;;;;;19.94;49.60;101334.84;5056186;28;45387;-59
2022/05/10 02:41:19;;;;;;;;;26.67;25.33;;;;;19.88;49.89;101320.00;5074136;28;45626;-60
2022/05/10 02:43:48;;;;;;;;;22.67;22.67;;;;;19.95;49.60;101329.31;5075296;27;46241;-60
2022/05/10 02:46:13;;;;;;;;;24.00;23.00;;;;;19.94;49.87;101327.59;5073717;28;45280;-59
2022/05/10 02:48:39;;;;;;;;;23.33;21.33;;;;;19.95;49.69;101326.59;5074725;28;45267;-61
2022/05/10 02:51:04;;;;;;;;;20.67;20.33;;;;;19.95;49.89;101329.31;5064162;27;45601;-59
2022/05/10 02:53:30;;;;;;;;;25.67;24.33;;;;;19.93;49.87;101317.78;5056275;28;46192;-59
2022/05/10 02:56:08;;;;;;;;;20.33;19.00;;;;;19.92;49.89;101316.06;5075027;28;45354;-61
2022/05/10 02:59:05;;;;;;;;;26.00;22.33;;;;;19.94;50.14;101316.78;5079953;27;45458;-59
2022/05/10 03:01:45;;;;;;;;;23.00;20.33;;;;;19.93;49.81;101317.78;5077532;27;45633;-61
2022/05/10 03:04:12;;;;;;;;;22.33;21.67;;;;;19.87;50.16;101309.31;5075078;28;45445;-60
2022/05/10 03:06:40;;;;;;;;;27.67;23.67;;;;;19.90;50.22;101307.22;5059154;27;45394;-60
2022/05/10 03:09:06;;;;;;;;;26.00;23.33;;;;;19.91;50.32;101319.72;5058267;28;45497;-60
2022/05/10 03:11:33;;;;;;;;;24.67;24.67;;;;;19.90;50.26;101315.31;5059377;27;45413;-60
2022/05/10 03:13:59;;;;;;;;;23.33;23.33;;;;;19.90;50.26;101307.22;5075769;27;45773;-59
2022/05/10 03:16:26;;;;;;;;;27.00;23.33;;;;;19.89;50.38;101310.91;5079671;27;45406;-58
2022/05/10 03:18:53;;;;;;;;;27.33;24.33;;;;;19.79;50.23;101287.50;5077550;27;45536;-59
2022/05/10 03:21:19;;;;;;;;;20.67;20.67;;;;;19.90;50.28;101303.66;5078034;28;45534;-59
2022/05/10 03:23:45;;;;;;;;;25.33;23.67;;;;;19.86;50.12;101305.78;5076249;27;45395;-59
2022/05/10 03:26:12;;;;;;;;;22.33;20.33;;;;;19.87;50.12;101302.09;5079014;27;45342;-59
2022/05/10 03:28:38;;;;;;;;;24.33;24.33;;;;;19.86;50.24;101294.13;5076776;27;45542;-60
2022/05/10 03:31:05;;;;;;;;;25.00;22.67;;;;;19.82;50.24;101285.44;5079233;27;45688;-60
2022/05/10 03:33:31;;;;;;;;;16.67;15.00;;;;;19.83;50.07;101289.00;5064028;27;46383;-60
2022/05/10 03:35:56;;;;;;;;;24.00;24.00;;;;;19.82;50.27;101288.13;5058664;27;45290;-60
2022/05/10 03:38:22;;;;;;;;;22.00;19.33;;;;;19.75;50.17;101292.31;5069955;28;45613;-60
2022/05/10 03:40:47;;;;;;;;;23.67;23.67;;;;;19.76;50.10;101288.63;5068497;28;45462;-59
2022/05/10 03:43:13;;;;;;;;;24.67;23.00;;;;;19.70;50.29;101283.75;5067880;28;46314;-60
2022/05/10 03:45:38;;;;;;;;;22.00;22.00;;;;;19.62;50.56;101270.88;5077628;27;45387;-60
2022/05/10 03:48:04;;;;;;;;;24.00;23.33;;;;;19.72;50.48;101279.09;5063732;27;45356;-63
2022/05/10 03:50:30;;;;;;;;;15.67;15.67;;;;;19.68;50.04;101278.50;5045263;28;45458;-59
2022/05/10 03:52:55;;;;;;;;;23.33;21.67;;;;;19.67;50.38;101286.72;5077169;27;46234;-60
2022/05/10 03:55:24;;;;;;;;;25.00;22.33;;;;;19.59;50.00;101264.91;5078498;27;45347;-59
2022/05/10 03:57:50;;;;;;;;;20.00;20.00;;;;;19.61;50.22;101274.56;5076776;28;45374;-61
2022/05/10 04:00:19;;;;;;;;;22.67;21.33;;;;;19.58;50.13;101268.59;5078941;27;45496;-60
2022/05/10 04:02:45;;;;;;;;;19.33;19.33;;;;;19.54;50.23;101264.41;5064674;28;46340;-59
2022/05/10 04:05:12;;;;;;;;;23.00;23.00;;;;;19.61;50.02;101284.50;5057051;28;45411;-59
2022/05/10 04:07:38;;;;;;;;;23.00;20.67;;;;;19.50;50.11;101253.00;5056915;28;45706;-60
2022/05/10 04:10:06;;;;;;;;;19.33;16.67;;;;;19.60;49.50;101267.47;5057602;28;45579;-61
2022/05/10 04:12:32;;;;;;;;;21.33;20.33;;;;;19.64;49.79;101276.16;5059860;28;46019;-59
2022/05/10 04:14:57;;;;;;;;;23.33;23.00;;;;;19.62;49.81;101273.59;5077168;27;45469;-59
2022/05/10 04:17:23;;;;;;;;;17.67;17.67;;;;;19.66;49.96;101287.69;5076390;27;45539;-59
2022/05/10 04:19:49;;;;;;;;;16.67;16.67;;;;;19.63;49.78;101277.16;5078578;27;45582;-60
2022/05/10 04:22:15;;;;;;;;;20.67;20.67;;;;;19.61;49.41;101274.56;5076260;27;46326;-61
2022/05/10 04:24:41;;;;;;;;;28.00;22.00;;;;;19.65;49.47;101283.25;5078302;28;45499;-63
2022/05/10 04:27:06;;;;;;;;;23.00;23.00;;;;;19.65;49.51;101277.88;5076881;27;45926;-60
2022/05/10 04:29:31;;;;;;;;;22.67;21.00;;;;;19.67;49.58;101279.47;5059802;28;45317;-59
2022/05/10 04:31:57;;;;;;;;;20.67;19.33;;;;;19.65;49.38;101272.47;5075929;28;47569;-58
2022/05/10 04:34:22;;;;;;;;;20.67;20.67;;;;;19.65;49.23;101267.06;5073751;27;45334;-59
2022/05/10 04:36:48;;;;;;;;;23.33;21.67;;;;;19.67;49.55;101273.22;5078162;28;45316;-58
2022/05/10 04:39:13;;;;;;;;;25.33;23.00;;;;;19.69;49.50;101272.09;5074700;28;45833;-62
2022/05/10 04:41:45;;;;;;;;;25.00;21.67;;;;;19.67;49.82;101270.53;5077930;27;45400;-60
2022/05/10 04:44:11;;;;;;;;;22.33;22.33;;;;;19.70;49.40;101267.56;5075920;27;45467;-60
2022/05/10 04:46:39;;;;;;;;;23.00;20.33;;;;;19.73;49.09;101273.56;5077714;27;45351;-62
2022/05/10 04:49:06;;;;;;;;;24.00;24.00;;;;;19.76;48.92;101264.34;5075524;27;45409;-59
2022/05/10 04:51:33;;;;;;;;;23.00;23.00;;;;;19.72;48.68;101266.44;5062991;27;46374;-59
2022/05/10 04:53:59;;;;;;;;;22.00;20.33;;;;;19.71;49.10;101272.84;5070058;28;45469;-60
2022/05/10 04:56:25;;;;;;;;;22.00;19.33;;;;;19.76;49.05;101277.84;5077825;28;45313;-60
2022/05/10 04:58:54;;;;;;;;;21.33;21.33;;;;;19.75;48.74;101276.13;5076496;27;45543;-60
2022/05/10 05:01:22;;;;;;;;;20.67;18.67;;;;;19.75;49.12;101273.41;5067883;27;45376;-60
2022/05/10 05:03:49;;;;;;;;;23.67;20.67;;;;;19.79;48.69;101280.28;5076081;27;45401;-60
2022/05/10 05:06:15;;;;;;;;;19.00;19.00;;;;;19.80;49.04;101279.31;5071424;28;45429;-59
2022/05/10 05:08:41;;;;;;;;;22.33;21.00;;;;;19.80;49.02;101283.84;5070162;28;45656;-59
2022/05/10 05:11:06;;;;;;;;;23.33;22.00;;;;;19.79;48.85;101274.88;5057866;28;45355;-59
2022/05/10 05:13:32;;;;;;;;;22.67;20.00;;;;;19.81;48.87;101274.78;5073552;28;45477;-60
2022/05/10 05:15:58;;;;;;;;;20.00;20.00;;;;;19.79;48.80;101279.41;5068505;27;45409;-59
2022/05/10 05:18:23;;;;;;;;;18.33;16.33;;;;;19.77;48.64;101274.16;5077488;27;45486;-58
2022/05/10 05:20:49;;;;;;;;;22.33;21.00;;;;;19.72;48.44;101266.44;5090418;27;46909;-60
2022/05/10 05:23:18;;;;;;;;;15.33;15.33;;;;;19.83;48.69;101279.03;5077914;27;45267;-60
2022/05/10 05:25:43;;;;;;;;;17.00;17.00;;;;;19.84;48.54;101291.56;5076873;27;45529;-60
2022/05/10 05:28:10;;;;;;;;;18.00;17.33;;;;;19.84;48.27;101290.69;5037733;28;45377;-61
2022/05/10 05:30:36;;;;;;;;;21.00;20.00;;;;;19.81;48.51;101282.88;5073730;28;46189;-60
2022/05/10 05:33:02;;;;;;;;;19.00;19.00;;;;;19.84;48.17;101290.69;5056348;28;45490;-60
2022/05/10 05:35:28;;;;;;;;;18.00;18.00;;;;;19.81;48.33;101283.72;5060230;28;45295;-59
2022/05/10 05:37:54;;;;;;;;;20.00;19.00;;;;;19.84;48.47;101279.91;5055657;28;45471;-60
2022/05/10 05:40:21;;;;;;;;;22.33;20.33;;;;;19.90;48.40;101292.88;5055399;27;45382;-61
2022/05/10 05:42:48;;;;;;;;;16.00;16.00;;;;;19.89;48.37;101292.00;5071882;27;45200;-59
2022/05/10 05:45:16;;;;;;;;;19.00;17.33;;;;;19.88;48.52;101290.31;5086500;27;45517;-58
2022/05/10 05:47:42;;;;;;;;;24.00;22.00;;;;;19.93;48.27;101290.78;5077341;27;45333;-64
2022/05/10 05:50:10;;;;;;;;;20.33;17.67;;;;;19.94;48.07;101297.91;5068088;27;45429;-60
2022/05/10 05:52:36;;;;;;;;;23.33;20.00;;;;;19.99;47.60;101294.81;5057368;28;45827;-63
2022/05/10 05:55:02;;;;;;;;;23.00;18.67;;;;;19.94;47.89;101280.84;5092418;27;45365;-61
2022/05/10 05:57:27;;;;;;;;;18.67;18.67;;;;;20.06;47.83;101295.16;5076823;27;45638;-65
2022/05/10 05:59:55;;;;;;;;;26.00;23.00;;;;;20.05;47.78;101286.16;5076664;28;46333;-63
2022/05/10 06:02:22;;;;;;;;;22.67;20.00;;;;;20.13;47.68;101290.94;5061524;27;45446;-68
2022/05/10 06:04:48;;;;;;;;;20.33;20.33;;;;;20.11;47.97;101282.97;5063175;27;45533;-65
2022/05/10 06:07:13;;;;;;;;;25.67;21.33;;;;;20.16;47.75;101280.72;5072064;28;45249;-61
2022/05/10 06:09:41;;;;;;;;;20.67;20.67;;;;;20.18;47.13;101273.38;5056183;28;45225;-62
2022/05/10 06:12:09;;;;;;;;;19.33;17.67;;;;;20.21;47.15;101274.94;5071514;27;45374;-62
2022/05/10 06:14:35;;;;;;;;;21.33;20.67;;;;;20.29;47.16;101291.31;5068520;27;45411;-66
2022/05/10 06:17:02;;;;;;;;;21.33;19.00;;;;;20.36;47.20;101286.28;5076597;27;45632;-62
2022/05/10 06:19:28;;;;;;;;;22.00;22.00;;;;;20.37;47.21;101283.44;5056036;27;45452;-62
2022/05/10 06:21:55;;;;;;;;;18.33;18.33;;;;;20.40;47.31;101288.56;5064357;27;45171;-57
2022/05/10 06:24:22;;;;;;;;;18.33;18.33;;;;;20.50;47.07;101289.50;5073295;28;45271;-59
2022/05/10 06:26:47;;;;;;;;;17.33;16.67;;;;;20.55;47.00;101292.66;5076643;27;45520;-60
2022/05/10 06:29:13;;;;;;;;;21.00;21.00;;;;;20.57;47.05;101279.00;5075210;28;46073;-61
2022/05/10 06:31:45;;;;;;;;;22.67;22.00;;;;;20.64;46.89;101290.16;5076298;27;45385;-61
2022/05/10 06:34:12;;;;;;;;;24.67;20.67;;;;;20.72;46.73;101276.84;5076264;27;45354;-64
2022/05/10 06:36:38;;;;;;;;;20.00;20.00;;;;;20.76;46.38;101273.72;5076591;27;45604;-64
2022/05/10 06:39:05;;;;;;;;;19.33;19.33;;;;;20.84;46.41;101282.03;5076369;27;46161;-63
2022/05/10 06:41:31;;;;;;;;;20.00;19.33;;;;;20.90;46.23;101278.75;5074764;27;45424;-61
2022/05/10 06:43:58;;;;;;;;;19.33;19.33;;;;;21.00;46.11;101275.25;5075091;27;45371;-66
2022/05/10 06:46:24;;;;;;;;;18.33;18.33;;;;;20.94;46.16;101263.13;5075111;27;45342;-64
2022/05/10 06:48:50;;;;;;;;;25.00;22.00;;;;;21.11;45.73;101284.13;5075748;27;46364;-64
2022/05/10 06:51:18;;;;;;;;;25.00;21.33;;;;;21.03;45.98;101258.75;5063044;27;45224;-60
2022/05/10 06:53:44;;;;;;;;;20.67;19.67;;;;;21.13;45.75;101268.59;5055738;28;45307;-59
2022/05/10 06:56:10;;;;;;;;;22.33;20.00;;;;;21.29;45.60;101286.19;5055624;28;45395;-58
2022/05/10 06:58:36;;;;;;;;;21.00;19.00;;;;;21.28;45.31;101269.09;5053352;28;46350;-59
2022/05/10 07:01:04;;;;;;;;;18.00;17.67;;;;;21.36;45.33;101281.94;5054050;28;45428;-62
2022/05/10 07:03:33;;;;;;;;;21.33;21.00;;;;;21.35;45.03;101280.22;5071017;27;45703;-62
2022/05/10 07:06:00;;;;;;;;;24.33;23.00;;;;;21.40;45.07;101273.41;5055732;27;45508;-62
2022/05/10 07:08:27;;;;;;;;;17.33;15.67;;;;;21.39;45.28;101269.00;5055074;28;45519;-61
2022/05/10 07:10:52;;;;;;;;;20.33;20.33;;;;;21.45;45.40;101273.84;5058396;28;45386;-60
2022/05/10 07:13:24;;;;;;;;;23.00;20.33;;;;;21.48;45.09;101275.41;5075703;27;45445;-60
2022/05/10 07:15:49;;;;;;;;;25.33;23.00;;;;;21.58;44.92;101276.28;5076115;27;46022;-63
2022/05/10 07:18:16;;;;;;;;;19.33;19.00;;;;;21.59;44.81;101269.84;5074183;27;47412;-61
2022/05/10 07:20:43;;;;;;;;;24.67;20.67;;;;;21.66;44.69;101273.72;5075149;27;45293;-59
2022/05/10 07:23:10;;;;;;;;;15.67;14.67;;;;;21.64;44.80;101264.91;5075601;27;45447;-62
2022/05/10 07:25:36;;;;;;;;;18.67;17.33;;;;;21.73;44.61;101265.88;5091977;27;45233;-60
2022/05/10 07:28:02;;;;;;;;;19.67;18.00;;;;;21.77;44.57;101264.63;5075602;27;45636;-57
2022/05/10 07:30:28;;;;;;;;;18.33;16.33;;;;;21.89;44.75;101262.63;5075519;27;45286;-57
2022/05/10 07:32:54;;;;;;;;;24.00;20.33;;;;;21.89;44.31;101258.06;5075993;28;45308;-58
2022/05/10 07:36:23;;;;;;;;;16.67;16.33;;;;;21.97;44.51;101270.88;5074663;27;45359;-62
2022/05/10 07:38:10;;;;;;;;;19.67;17.00;;;;;22.06;44.35;101264.66;5075957;27;45942;-61
2022/05/10 07:40:36;;;;;;;;;18.67;17.67;;;;;22.14;44.47;101267.50;5078213;27;45294;-61
2022/05/10 07:43:02;;;;;;;;;17.33;17.00;;;;;22.19;44.37;101267.91;5079207;27;45301;-61
2022/05/10 07:45:28;;;;;;;;;19.00;19.00;;;;;22.23;44.03;101263.91;5079395;27;45445;-62
2022/05/10 07:47:54;;;;;;;;;18.00;15.00;;;;;22.21;43.70;101265.91;5078541;27;45441;-59
2022/05/10 07:50:19;;;;;;;;;18.00;18.00;;;;;22.19;44.02;101265.19;5074078;27;45369;-59
2022/05/10 07:52:45;;;;;;;;;17.67;16.00;;;;;22.14;43.96;101251.25;5058686;28;45448;-59
2022/05/10 07:55:14;;;;;;;;;18.00;16.00;;;;;22.28;43.38;101258.91;5059275;28;45366;-65
2022/05/10 07:57:43;;;;;;;;;17.67;17.00;;;;;22.40;43.26;101258.72;5058194;28;45283;-61
2022/05/10 08:00:11;;;;;;;;;17.00;15.33;;;;;22.43;43.44;101240.34;5058747;28;45508;-61
2022/05/10 08:02:37;;;;;;;;;22.00;19.33;;;;;22.69;43.05;101256.81;5074151;28;45465;-63
2022/05/10 08:05:03;;;;;;;;;13.00;13.00;;;;;22.82;42.61;101254.63;5058740;28;45463;-57
2022/05/10 08:07:29;;;;;;;;;17.33;17.33;;;;;22.94;42.42;101267.00;5056599;28;47352;-62
2022/05/10 08:09:55;;;;;;;;;16.67;15.33;;;;;23.06;41.83;101264.09;5056778;28;45346;-59
2022/05/10 08:12:21;;;;;;;;;18.33;16.00;;;;;23.15;41.81;101260.47;5058257;27;45275;-60
2022/05/10 08:14:46;;;;;;;;;14.67;14.33;;;;;23.17;41.89;101250.31;5057111;27;45506;-61
2022/05/10 08:17:11;;;;;;;;;18.33;16.67;;;;;23.37;41.35;101262.78;5058201;28;46260;-58
2022/05/10 08:19:37;;;;;;;;;17.33;17.00;;;;;23.47;41.51;101263.56;5056169;28;45463;-61
2022/05/10 08:22:02;;;;;;;;;15.00;15.00;;;;;23.57;41.33;101273.47;5057967;28;45576;-60
2022/05/10 08:24:28;;;;;;;;;12.33;12.33;;;;;23.63;40.61;101267.50;5057259;27;45578;-59
2022/05/10 08:26:53;;;;;;;;;14.67;14.67;;;;;23.71;40.56;101259.44;5058030;28;45493;-57
2022/05/10 08:29:19;;;;;;;;;14.33;12.00;;;;;23.80;41.16;101266.63;5056709;28;45464;-60
2022/05/10 08:31:44;;;;;;;;;17.33;15.33;;;;;23.84;40.90;101276.19;5073607;28;45416;-59
2022/05/10 08:34:10;;;;;;;;;21.00;16.50;;;;;23.94;40.78;101270.66;5058288;28;45437;-59
2022/05/10 08:36:35;;;;;;;;;14.25;14.00;;;;;24.15;40.64;101263.03;5056254;28;46444;-59
2022/05/10 08:39:01;;;;;;;;;15.00;14.67;;;;;24.31;40.07;101262.34;5057719;28;45410;-63
2022/05/10 08:41:32;;;;;;;;;14.50;14.50;;;;;24.35;39.56;101263.72;5058064;28;45429;-61
2022/05/10 08:44:05;;;;;;;;;14.00;12.67;;;;;24.50;39.83;101255.84;5058413;28;45408;-63
2022/05/10 08:46:35;;;;;;;;;15.00;13.25;;;;;24.61;38.83;101237.41;5056094;27;46848;-60
2022/05/10 08:49:06;;;;;;;;;14.00;13.50;;;;;24.85;38.79;101254.84;5056168;28;45502;-61
2022/05/10 08:51:31;;;;;;;;;16.00;14.50;;;;;24.96;38.96;101240.94;5066754;27;45454;-61
2022/05/10 08:53:57;;;;;;;;;11.25;11.25;;;;;25.14;38.75;101244.47;5073495;27;45648;-60
2022/05/10 08:56:32;;;;;;;;;9.50;9.50;;;;;25.42;38.41;101239.63;5057331;27;46323;-60
2022/05/10 08:59:20;;;;;;;;;13.00;13.00;;;;;25.92;37.68;101249.59;5072711;28;45350;-59
2022/05/10 09:02:03;;;;;;;;;12.25;12.25;;;;;26.32;36.61;101245.13;5046816;28;45562;-59
2022/05/10 09:04:35;;;;;;;;;10.50;10.50;;;;;26.72;35.83;101241.50;5056207;27;45357;-65
2022/05/10 09:07:38;;;;;;;;;13.50;12.00;;;;;27.10;34.80;101241.72;5057307;27;45456;-58
2022/05/10 09:10:08;;;;;;;;;13.75;12.50;;;;;27.40;35.18;101243.59;5057205;27;45338;-58
2022/05/10 09:12:58;;;;;;;;;14.75;13.00;;;;;27.78;33.76;101239.09;5073209;27;45560;-58
2022/05/10 09:15:26;;;;;;;;;11.75;10.75;;;;;28.25;33.06;101232.53;5057482;28;45169;-60
2022/05/10 09:17:51;;;;;;;;;13.75;12.75;;;;;28.69;33.06;101232.63;5055780;28;46173;-57
2022/05/10 09:20:17;;;;;;;;;14.25;12.00;;;;;28.95;30.40;101242.28;5057172;28;45288;-60
2022/05/10 09:22:51;;;;;;;;;14.00;11.00;;;;;29.03;31.31;101233.94;5057328;28;45311;-61
2022/05/10 09:25:38;;;;;;;;;12.00;11.20;;;;;29.01;31.83;101234.13;5057550;27;45908;-57
2022/05/10 09:28:36;;;;;;;;;13.60;12.80;;;;;28.66;30.56;101241.22;5056765;27;45421;-62
2022/05/10 09:36:54;;;;;;;;;10.80;10.80;;;;;28.27;32.23;101221.47;5057422;28;45322;-59
2022/05/10 09:39:34;;;;;;;;;14.25;12.25;;;;;28.24;31.56;101221.78;5055405;28;46847;-59
2022/05/10 09:42:00;;;;;;;;;14.40;12.00;;;;;28.18;32.01;101213.28;5057092;28;45428;-62
2022/05/10 09:44:27;;;;;;;;;15.00;14.50;;;;;28.23;32.88;101214.59;5056886;28;45410;-63
2022/05/10 09:47:12;;;;;;;;;12.40;11.00;;;;;28.04;31.37;101219.56;5056775;27;45331;-63
2022/05/10 09:49:39;;;;;;;;;17.00;15.25;;;;;27.98;32.22;101223.03;5056686;28;46336;-60
2022/05/10 09:52:07;;;;;;;;;12.00;10.20;;;;;28.07;31.72;101223.81;5055970;28;45315;-58
2022/05/10 09:54:38;;;;;;;;;13.80;12.60;;;;;28.06;31.57;101217.50;5056708;28;45313;-60
2022/05/10 09:57:24;;;;;;;;;13.50;12.75;;;;;28.21;31.56;101212.06;5056613;28;45172;-57
2022/05/10 09:59:50;;;;;;;;;15.60;12.40;;;;;28.27;31.73;101207.78;5055916;28;45286;-59
2022/05/10 10:02:28;;;;;;;;;7.75;7.50;;;;;28.25;31.68;101207.06;5056920;28;45357;-62
2022/05/10 10:04:53;;;;;;;;;11.80;11.20;;;;;28.42;31.76;101204.03;5056708;28;45765;-59
2022/05/10 10:07:22;;;;;;;;;12.25;12.25;;;;;28.55;31.49;101197.88;5056811;28;45406;-60
2022/05/10 10:09:56;;;;;;;;;11.80;11.80;;;;;28.61;31.26;101191.66;5056551;27;45497;-60
2022/05/10 10:12:27;;;;;;;;;20.00;18.80;;;;;28.56;30.38;101210.53;5055778;28;45413;-60
2022/05/10 10:14:55;;;;;;;;;13.40;11.40;;;;;28.55;30.97;101194.31;5072176;27;45460;-60
2022/05/10 10:17:24;;;;;;;;;10.75;10.75;;;;;28.40;31.29;101202.50;5055088;28;45531;-58
2022/05/10 10:20:12;;;;;;;;;10.40;10.40;;;;;28.30;31.51;101194.56;5056120;28;45350;-58
2022/05/10 10:22:49;;;;;;;;;13.40;11.80;;;;;28.19;30.87;101204.03;5054536;28;45460;-57
2022/05/10 10:25:27;;;;;;;;;12.20;11.20;;;;;28.02;31.85;101193.47;5057042;28;45551;-59
2022/05/10 10:28:05;;;;;;;;;12.40;12.40;;;;;27.80;31.71;101206.13;5056569;28;45519;-62
2022/05/10 10:30:39;;;;;;;;;12.80;10.00;;;;;27.63;32.46;101206.22;5056082;27;46217;-62
2022/05/10 10:33:25;;;;;;;;;13.20;10.60;;;;;27.48;32.46;101212.66;5054498;28;45279;-61
2022/05/10 10:35:55;;;;;;;;;12.00;12.00;;;;;27.34;32.78;101219.72;5071691;27;45224;-60
2022/05/10 10:38:36;;;;;;;;;8.25;8.25;;;;;27.20;32.33;101206.84;5055227;28;45457;-59
2022/05/10 10:41:05;;;;;;;;;8.00;6.25;;;;;27.11;32.17;101202.47;5056086;28;46504;-59
2022/05/10 10:43:44;;;;;;;;;9.20;9.20;;;;;27.01;31.84;101198.06;5055865;28;45397;-59
2022/05/10 10:46:32;;;;;;;;;9.75;9.75;;;;;26.99;32.52;101205.56;5056347;28;45296;-58
2022/05/10 10:49:10;;;;;;;;;12.75;11.00;;;;;26.93;32.17;101210.88;5056292;28;45389;-57
2022/05/10 10:51:36;;;;;;;;;12.40;10.80;;;;;26.85;32.84;101186.38;5054245;27;45419;-58
2022/05/10 10:54:03;;;;;;;;;11.00;11.00;;;;;26.96;32.10;101196.88;5054436;28;45280;-62
2022/05/10 10:56:44;;;;;;;;;11.40;11.00;;;;;26.90;32.46;101200.31;5071308;27;45335;-60
2022/05/10 10:59:36;;;;;;;;;13.25;9.25;;;;;26.86;32.72;101199.81;5055790;28;45369;-58
2022/05/10 11:02:11;;;;;;;;;10.75;10.75;;;;;26.85;31.93;101200.00;5055168;28;45561;-60
2022/05/10 11:04:51;;;;;;;;;10.60;8.20;;;;;26.85;31.77;101189.94;5071110;28;45425;-60
2022/05/10 11:07:28;;;;;;;;;7.25;6.50;;;;;26.82;31.58;101189.41;5056006;28;45414;-63
2022/05/10 11:10:09;;;;;;;;;10.00;9.50;;;;;26.95;31.40;101193.28;5056031;28;45521;-58
2022/05/10 11:13:04;;;;;;;;;7.50;7.50;;;;;26.97;32.31;101184.94;5070519;28;45519;-62
2022/05/10 11:15:38;;;;;;;;;7.40;7.40;;;;;27.07;32.25;101169.19;5057851;28;45549;-60
2022/05/10 11:18:19;;;;;;;;;10.00;10.00;;;;;27.28;31.98;101168.56;5074841;28;45498;-60
2022/05/10 11:21:10;;;;;;;;;13.00;9.25;;;;;27.35;30.74;101166.81;5059617;28;45417;-58
2022/05/10 11:24:06;;;;;;;;;8.00;8.00;;;;;27.48;30.44;101156.16;5054159;28;45556;-63
2022/05/10 11:27:01;;;;;;;;;9.00;9.00;;;;;27.54;30.75;101160.00;5059410;28;45982;-59
2022/05/10 11:29:57;;;;;;;;;8.40;5.80;;;;;27.51;30.70;101165.84;5074622;28;45447;-63
2022/05/10 11:32:40;;;;;;;;;6.00;6.00;;;;;27.52;31.44;101157.47;5059572;28;45751;-57
2022/05/10 11:35:18;;;;;;;;;11.50;10.25;;;;;27.55;30.22;101162.56;5059407;28;45432;-61